sensor_id;sensor_type;location;lat;lon;timestamp;P1;durP1;ratioP1;P2;durP2;ratioP2
16472;SDS011;8347;52.486;13.432;2022-07-22T00:01:31;7.90;;;7.10;;
16472;SDS011;8347;52.486;13.432;2022-07-22T00:04:18;7.82;;;7.03;;
16472;SDS011;8347;52.486;13.432;2022-07-22T00:07:04;9.30;;;7.18;;
16472;SDS011;8347;52.486;13.432;2022-07-22T00:09:51;8.98;;;6.75;;
16472;SDS011;8347;52.486;13.432;2022-07-22T00:12:38;8.95;;;7.10;;
16472;SDS011;8347;52.486;13.432;2022-07-22T00:15:25;9.63;;;8.00;;
16472;SDS011;8347;52.486;13.432;2022-07-22T00:18:11;8.30;;;7.25;;
16472;SDS011;8347;52.486;13.432;2022-07-22T00:20:58;8.43;;;7.00;;
16472;SDS011;8347;52.486;13.432;2022-07-22T00:23:45;7.35;;;6.28;;
16472;SDS011;8347;52.486;13.432;2022-07-22T00:26:31;6.55;;;5.65;;
16472;SDS011;8347;52.486;13.432;2022-07-22T00:29:18;6.90;;;6.00;;
16472;SDS011;8347;52.486;13.432;2022-07-22T00:32:05;5.85;;;5.32;;
16472;SDS011;8347;52.486;13.432;2022-07-22T00:34:52;6.68;;;5.72;;
16472;SDS011;8347;52.486;13.432;2022-07-22T00:37:38;7.10;;;6.38;;
16472;SDS011;8347;52.486;13.432;2022-07-22T00:40:25;7.60;;;6.68;;
16472;SDS011;8347;52.486;13.432;2022-07-22T00:43:13;6.72;;;5.90;;
16472;SDS011;8347;52.486;13.432;2022-07-22T00:45:59;6.22;;;5.63;;
16472;SDS011;8347;52.486;13.432;2022-07-22T00:48:46;6.25;;;5.65;;
16472;SDS011;8347;52.486;13.432;2022-07-22T00:51:34;6.45;;;5.72;;
16472;SDS011;8347;52.486;13.432;2022-07-22T00:54:21;9.05;;;6.35;;
16472;SDS011;8347;52.486;13.432;2022-07-22T00:57:09;7.22;;;6.40;;
16472;SDS011;8347;52.486;13.432;2022-07-22T00:59:57;6.45;;;5.85;;
16472;SDS011;8347;52.486;13.432;2022-07-22T01:02:44;6.65;;;5.95;;
16472;SDS011;8347;52.486;13.432;2022-07-22T01:05:31;6.40;;;5.70;;
16472;SDS011;8347;52.486;13.432;2022-07-22T01:08:19;7.50;;;6.80;;
16472;SDS011;8347;52.486;13.432;2022-07-22T01:11:10;7.20;;;6.50;;
16472;SDS011;8347;52.486;13.432;2022-07-22T01:13:57;6.32;;;5.72;;
16472;SDS011;8347;52.486;13.432;2022-07-22T05:02:12;10.45;;;8.80;;
16472;SDS011;8347;52.486;13.432;2022-07-22T05:05:01;9.15;;;7.25;;
16472;SDS011;8347;52.486;13.432;2022-07-22T05:07:47;9.15;;;8.25;;
16472;SDS011;8347;52.486;13.432;2022-07-22T05:10:34;10.35;;;8.93;;
16472;SDS011;8347;52.486;13.432;2022-07-22T05:13:21;9.65;;;8.55;;
16472;SDS011;8347;52.486;13.432;2022-07-22T05:16:07;9.85;;;8.95;;
16472;SDS011;8347;52.486;13.432;2022-07-22T05:18:56;9.63;;;8.63;;
16472;SDS011;8347;52.486;13.432;2022-07-22T05:21:42;9.80;;;8.80;;
16472;SDS011;8347;52.486;13.432;2022-07-22T05:24:29;11.48;;;10.35;;
16472;SDS011;8347;52.486;13.432;2022-07-22T05:27:16;12.20;;;10.90;;
16472;SDS011;8347;52.486;13.432;2022-07-22T05:30:03;11.02;;;9.45;;
16472;SDS011;8347;52.486;13.432;2022-07-22T05:32:52;12.13;;;9.07;;
16472;SDS011;8347;52.486;13.432;2022-07-22T05:35:51;10.30;;;9.30;;
16472;SDS011;8347;52.486;13.432;2022-07-22T05:38:39;11.48;;;8.52;;
16472;SDS011;8347;52.486;13.432;2022-07-22T05:41:26;11.38;;;9.15;;
16472;SDS011;8347;52.486;13.432;2022-07-22T05:44:13;11.55;;;9.15;;
16472;SDS011;8347;52.486;13.432;2022-07-22T05:47:00;12.48;;;9.15;;
16472;SDS011;8347;52.486;13.432;2022-07-22T05:49:46;8.65;;;7.85;;
16472;SDS011;8347;52.486;13.432;2022-07-22T05:52:35;9.32;;;8.32;;
16472;SDS011;8347;52.486;13.432;2022-07-22T05:55:22;9.40;;;8.43;;
16472;SDS011;8347;52.486;13.432;2022-07-22T05:58:09;9.07;;;8.00;;
16472;SDS011;8347;52.486;13.432;2022-07-22T06:00:55;16.75;;;11.15;;
16472;SDS011;8347;52.486;13.432;2022-07-22T06:03:44;11.20;;;9.85;;
16472;SDS011;8347;52.486;13.432;2022-07-22T06:06:33;9.88;;;8.63;;
16472;SDS011;8347;52.486;13.432;2022-07-22T06:09:20;9.38;;;8.20;;
16472;SDS011;8347;52.486;13.432;2022-07-22T06:12:06;10.35;;;7.82;;
16472;SDS011;8347;52.486;13.432;2022-07-22T06:14:53;9.30;;;7.68;;
16472;SDS011;8347;52.486;13.432;2022-07-22T06:17:40;9.32;;;8.43;;
16472;SDS011;8347;52.486;13.432;2022-07-22T06:20:27;11.73;;;9.13;;
16472;SDS011;8347;52.486;13.432;2022-07-22T06:23:15;9.77;;;8.82;;
16472;SDS011;8347;52.486;13.432;2022-07-22T06:26:01;10.82;;;7.85;;
16472;SDS011;8347;52.486;13.432;2022-07-22T06:28:52;11.02;;;8.95;;
16472;SDS011;8347;52.486;13.432;2022-07-22T06:31:39;9.60;;;8.23;;
16472;SDS011;8347;52.486;13.432;2022-07-22T06:34:26;10.18;;;9.13;;
16472;SDS011;8347;52.486;13.432;2022-07-22T06:37:23;9.95;;;9.02;;
16472;SDS011;8347;52.486;13.432;2022-07-22T06:40:09;8.98;;;8.18;;
16472;SDS011;8347;52.486;13.432;2022-07-22T06:43:23;9.70;;;8.70;;
16472;SDS011;8347;52.486;13.432;2022-07-22T06:46:29;9.93;;;8.77;;
16472;SDS011;8347;52.486;13.432;2022-07-22T06:49:16;9.85;;;7.95;;
16472;SDS011;8347;52.486;13.432;2022-07-22T06:52:03;9.43;;;8.30;;
16472;SDS011;8347;52.486;13.432;2022-07-22T06:54:49;8.88;;;7.95;;
16472;SDS011;8347;52.486;13.432;2022-07-22T06:57:39;12.90;;;10.43;;
16472;SDS011;8347;52.486;13.432;2022-07-22T07:00:26;9.75;;;8.68;;
16472;SDS011;8347;52.486;13.432;2022-07-22T07:03:31;9.45;;;8.55;;
16472;SDS011;8347;52.486;13.432;2022-07-22T07:06:21;9.80;;;8.45;;
16472;SDS011;8347;52.486;13.432;2022-07-22T07:09:26;8.25;;;7.45;;
16472;SDS011;8347;52.486;13.432;2022-07-22T07:12:22;9.52;;;7.75;;
16472;SDS011;8347;52.486;13.432;2022-07-22T07:15:38;8.82;;;8.02;;
16472;SDS011;8347;52.486;13.432;2022-07-22T07:18:27;9.05;;;7.28;;
16472;SDS011;8347;52.486;13.432;2022-07-22T07:21:14;12.75;;;9.27;;
16472;SDS011;8347;52.486;13.432;2022-07-22T07:24:00;10.20;;;9.15;;
16472;SDS011;8347;52.486;13.432;2022-07-22T07:26:47;9.55;;;7.93;;
16472;SDS011;8347;52.486;13.432;2022-07-22T07:29:34;9.50;;;8.60;;
16472;SDS011;8347;52.486;13.432;2022-07-22T07:32:20;11.32;;;9.60;;
16472;SDS011;8347;52.486;13.432;2022-07-22T07:35:08;9.45;;;8.55;;
16472;SDS011;8347;52.486;13.432;2022-07-22T07:37:54;7.60;;;6.90;;
16472;SDS011;8347;52.486;13.432;2022-07-22T07:40:41;9.07;;;7.68;;
16472;SDS011;8347;52.486;13.432;2022-07-22T07:43:28;8.98;;;7.85;;
16472;SDS011;8347;52.486;13.432;2022-07-22T07:46:15;9.77;;;7.72;;
16472;SDS011;8347;52.486;13.432;2022-07-22T07:49:02;7.70;;;6.80;;
16472;SDS011;8347;52.486;13.432;2022-07-22T07:51:49;7.45;;;6.63;;
16472;SDS011;8347;52.486;13.432;2022-07-22T07:54:36;7.10;;;6.07;;
16472;SDS011;8347;52.486;13.432;2022-07-22T07:57:23;6.88;;;6.28;;
16472;SDS011;8347;52.486;13.432;2022-07-22T08:00:10;6.88;;;6.05;;
16472;SDS011;8347;52.486;13.432;2022-07-22T08:03:01;6.05;;;5.43;;
16472;SDS011;8347;52.486;13.432;2022-07-22T08:05:51;7.57;;;6.78;;
16472;SDS011;8347;52.486;13.432;2022-07-22T08:08:40;7.20;;;5.57;;
16472;SDS011;8347;52.486;13.432;2022-07-22T08:11:35;5.55;;;5.05;;
16472;SDS011;8347;52.486;13.432;2022-07-22T08:14:47;5.65;;;5.15;;
16472;SDS011;8347;52.486;13.432;2022-07-22T08:17:46;5.28;;;4.78;;
16472;SDS011;8347;52.486;13.432;2022-07-22T08:20:33;7.68;;;5.30;;
16472;SDS011;8347;52.486;13.432;2022-07-22T08:23:19;5.30;;;4.80;;
16472;SDS011;8347;52.486;13.432;2022-07-22T08:26:07;6.95;;;6.10;;
16472;SDS011;8347;52.486;13.432;2022-07-22T08:28:53;6.35;;;4.70;;
16472;SDS011;8347;52.486;13.432;2022-07-22T08:31:40;6.28;;;5.68;;
16472;SDS011;8347;52.486;13.432;2022-07-22T08:34:30;5.47;;;4.70;;
16472;SDS011;8347;52.486;13.432;2022-07-22T08:37:16;5.88;;;4.57;;
16472;SDS011;8347;52.486;13.432;2022-07-22T08:40:04;5.32;;;4.80;;
16472;SDS011;8347;52.486;13.432;2022-07-22T08:42:52;5.32;;;4.82;;
16472;SDS011;8347;52.486;13.432;2022-07-22T08:45:39;5.25;;;4.75;;
16472;SDS011;8347;52.486;13.432;2022-07-22T08:48:26;4.97;;;4.47;;
16472;SDS011;8347;52.486;13.432;2022-07-22T08:51:22;5.65;;;4.55;;
16472;SDS011;8347;52.486;13.432;2022-07-22T08:54:27;5.68;;;4.20;;
16472;SDS011;8347;52.486;13.432;2022-07-22T08:57:14;4.65;;;4.22;;
16472;SDS011;8347;52.486;13.432;2022-07-22T09:00:01;5.90;;;4.95;;
16472;SDS011;8347;52.486;13.432;2022-07-22T09:02:51;5.43;;;4.65;;
16472;SDS011;8347;52.486;13.432;2022-07-22T09:05:37;6.60;;;4.70;;
16472;SDS011;8347;52.486;13.432;2022-07-22T09:08:25;4.82;;;4.38;;
16472;SDS011;8347;52.486;13.432;2022-07-22T09:11:17;5.55;;;5.03;;
16472;SDS011;8347;52.486;13.432;2022-07-22T09:14:43;5.18;;;4.68;;
16472;SDS011;8347;52.486;13.432;2022-07-22T09:17:50;5.70;;;5.10;;
16472;SDS011;8347;52.486;13.432;2022-07-22T09:20:59;5.38;;;4.88;;
16472;SDS011;8347;52.486;13.432;2022-07-22T09:23:51;5.60;;;4.63;;
16472;SDS011;8347;52.486;13.432;2022-07-22T09:26:39;10.88;;;5.32;;
16472;SDS011;8347;52.486;13.432;2022-07-22T09:29:50;7.30;;;5.00;;
16472;SDS011;8347;52.486;13.432;2022-07-22T09:32:40;5.97;;;5.40;;
16472;SDS011;8347;52.486;13.432;2022-07-22T09:35:47;5.07;;;4.57;;
16472;SDS011;8347;52.486;13.432;2022-07-22T09:38:34;4.60;;;4.20;;
16472;SDS011;8347;52.486;13.432;2022-07-22T09:41:21;6.72;;;5.35;;
16472;SDS011;8347;52.486;13.432;2022-07-22T09:44:23;8.20;;;5.32;;
16472;SDS011;8347;52.486;13.432;2022-07-22T09:47:28;9.40;;;6.32;;
16472;SDS011;8347;52.486;13.432;2022-07-22T09:50:41;4.07;;;3.70;;
16472;SDS011;8347;52.486;13.432;2022-07-22T09:53:46;2.97;;;2.78;;
16472;SDS011;8347;52.486;13.432;2022-07-22T09:56:35;3.53;;;3.22;;
16472;SDS011;8347;52.486;13.432;2022-07-22T09:59:22;3.25;;;2.88;;
16472;SDS011;8347;52.486;13.432;2022-07-22T10:02:32;3.08;;;2.88;;
16472;SDS011;8347;52.486;13.432;2022-07-22T10:05:21;3.67;;;3.38;;
16472;SDS011;8347;52.486;13.432;2022-07-22T10:08:09;3.30;;;2.95;;
16472;SDS011;8347;52.486;13.432;2022-07-22T10:11:01;5.78;;;4.63;;
16472;SDS011;8347;52.486;13.432;2022-07-22T10:13:48;4.47;;;4.03;;
16472;SDS011;8347;52.486;13.432;2022-07-22T10:16:36;9.07;;;5.10;;
16472;SDS011;8347;52.486;13.432;2022-07-22T10:19:22;3.00;;;2.70;;
16472;SDS011;8347;52.486;13.432;2022-07-22T10:25:15;2.53;;;1.85;;
16472;SDS011;8347;52.486;13.432;2022-07-22T10:28:05;7.68;;;6.10;;
16472;SDS011;8347;52.486;13.432;2022-07-22T10:30:59;15.82;;;10.43;;
16472;SDS011;8347;52.486;13.432;2022-07-22T10:34:00;3.35;;;3.05;;
16472;SDS011;8347;52.486;13.432;2022-07-22T10:36:46;4.43;;;3.17;;
16472;SDS011;8347;52.486;13.432;2022-07-22T10:39:33;3.42;;;2.88;;
16472;SDS011;8347;52.486;13.432;2022-07-22T10:42:20;3.33;;;2.85;;
16472;SDS011;8347;52.486;13.432;2022-07-22T10:45:07;3.58;;;3.28;;
16472;SDS011;8347;52.486;13.432;2022-07-22T10:47:55;3.58;;;3.28;;
16472;SDS011;8347;52.486;13.432;2022-07-22T10:50:43;4.57;;;3.60;;
16472;SDS011;8347;52.486;13.432;2022-07-22T10:53:49;3.97;;;3.67;;
16472;SDS011;8347;52.486;13.432;2022-07-22T10:56:41;3.42;;;3.13;;
16472;SDS011;8347;52.486;13.432;2022-07-22T10:59:27;3.85;;;3.50;;
16472;SDS011;8347;52.486;13.432;2022-07-22T11:02:14;3.63;;;3.33;;
16472;SDS011;8347;52.486;13.432;2022-07-22T11:05:02;4.70;;;4.30;;
16472;SDS011;8347;52.486;13.432;2022-07-22T11:07:49;5.13;;;3.88;;
16472;SDS011;8347;52.486;13.432;2022-07-22T11:10:35;4.88;;;3.83;;
16472;SDS011;8347;52.486;13.432;2022-07-22T11:13:31;3.80;;;3.50;;
16472;SDS011;8347;52.486;13.432;2022-07-22T14:02:01;2.05;;;1.90;;
16472;SDS011;8347;52.486;13.432;2022-07-22T14:04:47;3.35;;;3.05;;
16472;SDS011;8347;52.486;13.432;2022-07-22T14:07:34;4.03;;;2.63;;
16472;SDS011;8347;52.486;13.432;2022-07-22T14:10:20;3.10;;;2.55;;
16472;SDS011;8347;52.486;13.432;2022-07-22T14:13:07;3.97;;;2.65;;
16472;SDS011;8347;52.486;13.432;2022-07-22T14:15:54;4.28;;;3.08;;
16472;SDS011;8347;52.486;13.432;2022-07-22T14:18:40;2.63;;;2.42;;
16472;SDS011;8347;52.486;13.432;2022-07-22T14:21:27;4.55;;;2.13;;
16472;SDS011;8347;52.486;13.432;2022-07-22T14:24:13;3.05;;;2.13;;
16472;SDS011;8347;52.486;13.432;2022-07-22T14:27:00;3.05;;;2.03;;
16472;SDS011;8347;52.486;13.432;2022-07-22T14:29:47;2.13;;;1.92;;
16472;SDS011;8347;52.486;13.432;2022-07-22T14:32:33;2.75;;;1.80;;
16472;SDS011;8347;52.486;13.432;2022-07-22T14:35:19;2.33;;;1.73;;
16472;SDS011;8347;52.486;13.432;2022-07-22T14:38:05;4.75;;;2.40;;
16472;SDS011;8347;52.486;13.432;2022-07-22T14:40:52;2.55;;;2.35;;
16472;SDS011;8347;52.486;13.432;2022-07-22T14:43:39;5.47;;;2.38;;
16472;SDS011;8347;52.486;13.432;2022-07-22T14:46:26;4.07;;;2.30;;
16472;SDS011;8347;52.486;13.432;2022-07-22T14:49:12;9.52;;;4.10;;
16472;SDS011;8347;52.486;13.432;2022-07-22T14:51:59;4.22;;;1.83;;
16472;SDS011;8347;52.486;13.432;2022-07-22T14:54:45;6.15;;;2.60;;
16472;SDS011;8347;52.486;13.432;2022-07-22T14:57:32;3.42;;;2.60;;
16472;SDS011;8347;52.486;13.432;2022-07-22T15:00:18;2.03;;;1.88;;
16472;SDS011;8347;52.486;13.432;2022-07-22T15:03:05;3.35;;;2.42;;
16472;SDS011;8347;52.486;13.432;2022-07-22T15:05:51;2.00;;;1.90;;
16472;SDS011;8347;52.486;13.432;2022-07-22T15:08:38;2.03;;;1.85;;
16472;SDS011;8347;52.486;13.432;2022-07-22T15:11:24;4.85;;;2.47;;
16472;SDS011;8347;52.486;13.432;2022-07-22T15:14:11;2.55;;;2.35;;
16472;SDS011;8347;52.486;13.432;2022-07-22T15:16:57;2.92;;;2.55;;
16472;SDS011;8347;52.486;13.432;2022-07-22T15:19:44;3.15;;;2.35;;
16472;SDS011;8347;52.486;13.432;2022-07-22T15:22:31;4.10;;;2.53;;
16472;SDS011;8347;52.486;13.432;2022-07-22T15:25:17;2.00;;;1.90;;
16472;SDS011;8347;52.486;13.432;2022-07-22T15:28:04;3.72;;;3.42;;
16472;SDS011;8347;52.486;13.432;2022-07-22T15:30:52;4.55;;;2.22;;
16472;SDS011;8347;52.486;13.432;2022-07-22T15:33:38;2.30;;;2.00;;
16472;SDS011;8347;52.486;13.432;2022-07-22T15:36:25;3.83;;;2.38;;
16472;SDS011;8347;52.486;13.432;2022-07-22T15:39:12;2.33;;;2.10;;
16472;SDS011;8347;52.486;13.432;2022-07-22T15:41:59;2.97;;;2.20;;
16472;SDS011;8347;52.486;13.432;2022-07-22T15:44:45;2.80;;;2.38;;
16472;SDS011;8347;52.486;13.432;2022-07-22T15:47:32;2.30;;;2.10;;
16472;SDS011;8347;52.486;13.432;2022-07-22T15:50:19;2.50;;;2.15;;
16472;SDS011;8347;52.486;13.432;2022-07-22T15:53:06;4.13;;;3.00;;
16472;SDS011;8347;52.486;13.432;2022-07-22T15:55:53;2.22;;;2.03;;
16472;SDS011;8347;52.486;13.432;2022-07-22T15:58:40;3.80;;;3.38;;
16472;SDS011;8347;52.486;13.432;2022-07-22T16:01:45;2.35;;;2.15;;
16472;SDS011;8347;52.486;13.432;2022-07-22T16:04:31;2.42;;;2.22;;
16472;SDS011;8347;52.486;13.432;2022-07-22T16:07:18;2.63;;;2.33;;
16472;SDS011;8347;52.486;13.432;2022-07-22T16:10:05;2.38;;;2.03;;
16472;SDS011;8347;52.486;13.432;2022-07-22T16:12:51;3.55;;;1.88;;
16472;SDS011;8347;52.486;13.432;2022-07-22T16:15:38;2.85;;;2.65;;
16472;SDS011;8347;52.486;13.432;2022-07-22T16:18:25;2.10;;;1.90;;
16472;SDS011;8347;52.486;13.432;2022-07-22T16:21:12;3.42;;;3.00;;
16472;SDS011;8347;52.486;13.432;2022-07-22T16:23:58;2.40;;;2.20;;
16472;SDS011;8347;52.486;13.432;2022-07-22T16:26:47;2.70;;;2.50;;
16472;SDS011;8347;52.486;13.432;2022-07-22T16:29:33;3.08;;;2.78;;
16472;SDS011;8347;52.486;13.432;2022-07-22T16:32:20;2.50;;;2.30;;
16472;SDS011;8347;52.486;13.432;2022-07-22T16:35:07;4.25;;;2.28;;
16472;SDS011;8347;52.486;13.432;2022-07-22T16:37:54;4.35;;;3.05;;
16472;SDS011;8347;52.486;13.432;2022-07-22T16:40:40;4.72;;;2.90;;
16472;SDS011;8347;52.486;13.432;2022-07-22T16:43:27;3.55;;;3.05;;
16472;SDS011;8347;52.486;13.432;2022-07-22T16:46:13;2.25;;;2.03;;
16472;SDS011;8347;52.486;13.432;2022-07-22T16:49:00;3.40;;;2.85;;
16472;SDS011;8347;52.486;13.432;2022-07-22T16:51:46;4.82;;;3.28;;
16472;SDS011;8347;52.486;13.432;2022-07-22T16:54:33;3.22;;;2.75;;
16472;SDS011;8347;52.486;13.432;2022-07-22T16:57:19;5.72;;;4.47;;
16472;SDS011;8347;52.486;13.432;2022-07-22T17:00:06;6.78;;;4.60;;
16472;SDS011;8347;52.486;13.432;2022-07-22T17:02:53;6.40;;;3.83;;
16472;SDS011;8347;52.486;13.432;2022-07-22T17:05:40;5.07;;;3.33;;
16472;SDS011;8347;52.486;13.432;2022-07-22T17:08:27;8.20;;;4.45;;
16472;SDS011;8347;52.486;13.432;2022-07-22T17:11:14;8.07;;;4.63;;
16472;SDS011;8347;52.486;13.432;2022-07-22T17:14:00;8.50;;;6.60;;
16472;SDS011;8347;52.486;13.432;2022-07-22T17:16:47;8.57;;;7.40;;
16472;SDS011;8347;52.486;13.432;2022-07-22T17:19:33;5.72;;;5.13;;
16472;SDS011;8347;52.486;13.432;2022-07-22T17:22:19;4.88;;;4.07;;
16472;SDS011;8347;52.486;13.432;2022-07-22T17:25:06;13.63;;;5.47;;
16472;SDS011;8347;52.486;13.432;2022-07-22T17:27:53;4.85;;;3.95;;
16472;SDS011;8347;52.486;13.432;2022-07-22T17:30:39;5.82;;;4.90;;
16472;SDS011;8347;52.486;13.432;2022-07-22T17:33:26;6.10;;;3.70;;
16472;SDS011;8347;52.486;13.432;2022-07-22T17:36:13;3.80;;;3.10;;
16472;SDS011;8347;52.486;13.432;2022-07-22T17:38:59;2.97;;;2.65;;
16472;SDS011;8347;52.486;13.432;2022-07-22T17:41:46;7.03;;;4.28;;
16472;SDS011;8347;52.486;13.432;2022-07-22T17:44:32;6.90;;;3.75;;
16472;SDS011;8347;52.486;13.432;2022-07-22T17:47:19;6.43;;;4.70;;
16472;SDS011;8347;52.486;13.432;2022-07-22T17:50:05;5.55;;;3.60;;
16472;SDS011;8347;52.486;13.432;2022-07-22T17:52:52;8.15;;;4.70;;
16472;SDS011;8347;52.486;13.432;2022-07-22T17:55:38;7.75;;;3.38;;
16472;SDS011;8347;52.486;13.432;2022-07-22T17:58:25;4.53;;;4.13;;
16472;SDS011;8347;52.486;13.432;2022-07-22T18:01:12;6.10;;;4.20;;
16472;SDS011;8347;52.486;13.432;2022-07-22T18:03:58;5.40;;;4.32;;
16472;SDS011;8347;52.486;13.432;2022-07-22T18:06:45;6.30;;;5.03;;
16472;SDS011;8347;52.486;13.432;2022-07-22T18:09:31;3.75;;;3.38;;
16472;SDS011;8347;52.486;13.432;2022-07-22T18:12:18;6.45;;;5.38;;
16472;SDS011;8347;52.486;13.432;2022-07-22T18:15:05;5.20;;;4.70;;
16472;SDS011;8347;52.486;13.432;2022-07-22T18:17:51;4.25;;;3.15;;
16472;SDS011;8347;52.486;13.432;2022-07-22T18:20:38;6.00;;;4.90;;
16472;SDS011;8347;52.486;13.432;2022-07-22T18:23:25;11.85;;;7.95;;
16472;SDS011;8347;52.486;13.432;2022-07-22T18:26:11;7.53;;;6.00;;
16472;SDS011;8347;52.486;13.432;2022-07-22T18:28:58;6.05;;;4.30;;
16472;SDS011;8347;52.486;13.432;2022-07-22T18:31:45;3.58;;;3.28;;
16472;SDS011;8347;52.486;13.432;2022-07-22T18:34:31;6.85;;;4.75;;
16472;SDS011;8347;52.486;13.432;2022-07-22T18:37:17;4.25;;;3.60;;
16472;SDS011;8347;52.486;13.432;2022-07-22T18:40:05;6.10;;;3.72;;
16472;SDS011;8347;52.486;13.432;2022-07-22T18:42:51;4.30;;;3.30;;
16472;SDS011;8347;52.486;13.432;2022-07-22T18:45:38;4.65;;;3.92;;
16472;SDS011;8347;52.486;13.432;2022-07-22T18:48:25;5.30;;;3.78;;
16472;SDS011;8347;52.486;13.432;2022-07-22T18:51:11;6.25;;;4.63;;
16472;SDS011;8347;52.486;13.432;2022-07-22T18:53:58;6.97;;;5.22;;
16472;SDS011;8347;52.486;13.432;2022-07-22T18:56:45;10.80;;;6.55;;
16472;SDS011;8347;52.486;13.432;2022-07-22T18:59:32;4.90;;;4.40;;
16472;SDS011;8347;52.486;13.432;2022-07-22T19:02:18;9.60;;;5.20;;
16472;SDS011;8347;52.486;13.432;2022-07-22T19:05:05;6.20;;;4.20;;
16472;SDS011;8347;52.486;13.432;2022-07-22T19:07:52;4.55;;;4.13;;
16472;SDS011;8347;52.486;13.432;2022-07-22T19:10:39;6.28;;;5.45;;
16472;SDS011;8347;52.486;13.432;2022-07-22T19:13:26;6.55;;;3.95;;
16472;SDS011;8347;52.486;13.432;2022-07-22T19:16:13;7.40;;;4.97;;
16472;SDS011;8347;52.486;13.432;2022-07-22T19:18:59;9.13;;;5.75;;
16472;SDS011;8347;52.486;13.432;2022-07-22T19:21:46;5.60;;;4.85;;
16472;SDS011;8347;52.486;13.432;2022-07-22T19:24:34;6.90;;;4.45;;
16472;SDS011;8347;52.486;13.432;2022-07-22T19:27:20;5.13;;;4.63;;
16472;SDS011;8347;52.486;13.432;2022-07-22T19:30:08;5.97;;;4.40;;
16472;SDS011;8347;52.486;13.432;2022-07-22T19:32:57;5.75;;;4.38;;
16472;SDS011;8347;52.486;13.432;2022-07-22T19:35:43;6.10;;;4.30;;
16472;SDS011;8347;52.486;13.432;2022-07-22T19:38:30;6.55;;;5.05;;
16472;SDS011;8347;52.486;13.432;2022-07-22T19:41:17;5.95;;;5.15;;
16472;SDS011;8347;52.486;13.432;2022-07-22T19:44:04;9.18;;;6.65;;
16472;SDS011;8347;52.486;13.432;2022-07-22T19:46:50;8.68;;;6.75;;
16472;SDS011;8347;52.486;13.432;2022-07-22T19:49:40;5.35;;;4.85;;
16472;SDS011;8347;52.486;13.432;2022-07-22T19:52:27;9.15;;;5.97;;
16472;SDS011;8347;52.486;13.432;2022-07-22T19:55:13;7.13;;;5.40;;
16472;SDS011;8347;52.486;13.432;2022-07-22T19:58:00;6.80;;;5.20;;
16472;SDS011;8347;52.486;13.432;2022-07-22T20:00:47;12.00;;;7.25;;
16472;SDS011;8347;52.486;13.432;2022-07-22T20:03:34;8.60;;;6.13;;
16472;SDS011;8347;52.486;13.432;2022-07-22T20:06:20;10.00;;;5.68;;
16472;SDS011;8347;52.486;13.432;2022-07-22T20:09:07;8.10;;;5.43;;
16472;SDS011;8347;52.486;13.432;2022-07-22T20:11:54;8.38;;;6.13;;
16472;SDS011;8347;52.486;13.432;2022-07-22T20:14:41;9.27;;;6.30;;
16472;SDS011;8347;52.486;13.432;2022-07-22T20:17:27;6.65;;;5.25;;
16472;SDS011;8347;52.486;13.432;2022-07-22T20:20:14;7.35;;;5.95;;
16472;SDS011;8347;52.486;13.432;2022-07-22T20:23:00;6.13;;;5.53;;
16472;SDS011;8347;52.486;13.432;2022-07-22T20:25:47;9.18;;;5.60;;
16472;SDS011;8347;52.486;13.432;2022-07-22T20:28:33;6.78;;;5.63;;
16472;SDS011;8347;52.486;13.432;2022-07-22T20:31:20;5.97;;;4.68;;
16472;SDS011;8347;52.486;13.432;2022-07-22T20:34:07;8.18;;;6.10;;
16472;SDS011;8347;52.486;13.432;2022-07-22T20:36:54;9.90;;;7.15;;
16472;SDS011;8347;52.486;13.432;2022-07-22T20:39:40;7.20;;;5.75;;
16472;SDS011;8347;52.486;13.432;2022-07-22T20:42:27;6.80;;;6.05;;
16472;SDS011;8347;52.486;13.432;2022-07-22T20:45:13;7.65;;;5.60;;
16472;SDS011;8347;52.486;13.432;2022-07-22T20:48:00;10.57;;;6.70;;
16472;SDS011;8347;52.486;13.432;2022-07-22T20:50:46;6.20;;;4.78;;
16472;SDS011;8347;52.486;13.432;2022-07-22T20:53:33;11.60;;;6.90;;
16472;SDS011;8347;52.486;13.432;2022-07-22T20:56:19;8.68;;;6.53;;
16472;SDS011;8347;52.486;13.432;2022-07-22T20:59:05;12.13;;;7.10;;
16472;SDS011;8347;52.486;13.432;2022-07-22T21:01:52;9.70;;;6.72;;
16472;SDS011;8347;52.486;13.432;2022-07-22T21:04:38;8.25;;;6.57;;
16472;SDS011;8347;52.486;13.432;2022-07-22T21:07:25;6.85;;;5.97;;
16472;SDS011;8347;52.486;13.432;2022-07-22T21:10:12;10.23;;;7.68;;
16472;SDS011;8347;52.486;13.432;2022-07-22T21:12:59;9.18;;;7.25;;
16472;SDS011;8347;52.486;13.432;2022-07-22T21:15:45;10.45;;;8.23;;
16472;SDS011;8347;52.486;13.432;2022-07-22T21:18:32;9.38;;;7.03;;
16472;SDS011;8347;52.486;13.432;2022-07-22T21:21:19;11.93;;;6.47;;
16472;SDS011;8347;52.486;13.432;2022-07-22T21:24:05;11.68;;;8.27;;
16472;SDS011;8347;52.486;13.432;2022-07-22T21:26:52;8.13;;;6.57;;
16472;SDS011;8347;52.486;13.432;2022-07-22T21:29:38;6.45;;;5.00;;
16472;SDS011;8347;52.486;13.432;2022-07-22T21:32:25;9.77;;;7.70;;
16472;SDS011;8347;52.486;13.432;2022-07-22T21:35:12;11.25;;;6.57;;
16472;SDS011;8347;52.486;13.432;2022-07-22T21:38:00;7.28;;;6.50;;
16472;SDS011;8347;52.486;13.432;2022-07-22T21:40:46;11.00;;;6.97;;
16472;SDS011;8347;52.486;13.432;2022-07-22T21:43:33;11.45;;;7.95;;
16472;SDS011;8347;52.486;13.432;2022-07-22T21:46:20;8.75;;;7.75;;
16472;SDS011;8347;52.486;13.432;2022-07-22T21:49:08;8.75;;;7.03;;
16472;SDS011;8347;52.486;13.432;2022-07-22T21:51:54;7.93;;;5.72;;
16472;SDS011;8347;52.486;13.432;2022-07-22T21:54:41;8.25;;;6.35;;
16472;SDS011;8347;52.486;13.432;2022-07-22T21:57:27;8.65;;;7.40;;
16472;SDS011;8347;52.486;13.432;2022-07-22T22:00:14;11.38;;;8.27;;
16472;SDS011;8347;52.486;13.432;2022-07-22T22:03:01;10.55;;;6.75;;
16472;SDS011;8347;52.486;13.432;2022-07-22T22:05:47;9.43;;;7.97;;
16472;SDS011;8347;52.486;13.432;2022-07-22T22:08:34;11.40;;;7.90;;
16472;SDS011;8347;52.486;13.432;2022-07-22T22:11:21;10.60;;;8.73;;
16472;SDS011;8347;52.486;13.432;2022-07-22T22:14:07;11.48;;;8.38;;
16472;SDS011;8347;52.486;13.432;2022-07-22T22:16:54;8.13;;;7.30;;
16472;SDS011;8347;52.486;13.432;2022-07-22T22:19:43;12.43;;;8.93;;
16472;SDS011;8347;52.486;13.432;2022-07-22T22:22:30;8.73;;;7.20;;
16472;SDS011;8347;52.486;13.432;2022-07-22T22:25:16;11.18;;;8.52;;
16472;SDS011;8347;52.486;13.432;2022-07-22T22:28:03;9.32;;;7.20;;
16472;SDS011;8347;52.486;13.432;2022-07-22T22:30:49;7.38;;;6.32;;
16472;SDS011;8347;52.486;13.432;2022-07-22T22:33:36;20.92;;;13.95;;
16472;SDS011;8347;52.486;13.432;2022-07-22T22:36:23;9.32;;;7.65;;
16472;SDS011;8347;52.486;13.432;2022-07-22T22:39:09;11.55;;;8.93;;
16472;SDS011;8347;52.486;13.432;2022-07-22T22:41:56;12.68;;;9.95;;
16472;SDS011;8347;52.486;13.432;2022-07-22T22:44:43;12.68;;;9.15;;
16472;SDS011;8347;52.486;13.432;2022-07-22T22:47:29;19.08;;;12.27;;
16472;SDS011;8347;52.486;13.432;2022-07-22T22:50:16;14.82;;;11.30;;
16472;SDS011;8347;52.486;13.432;2022-07-22T22:53:03;10.43;;;7.45;;
16472;SDS011;8347;52.486;13.432;2022-07-22T22:55:50;10.43;;;7.55;;
16472;SDS011;8347;52.486;13.432;2022-07-22T22:58:37;10.02;;;8.27;;
16472;SDS011;8347;52.486;13.432;2022-07-22T23:01:24;11.90;;;8.05;;
16472;SDS011;8347;52.486;13.432;2022-07-22T23:04:10;10.20;;;7.93;;
16472;SDS011;8347;52.486;13.432;2022-07-22T23:06:57;16.75;;;13.63;;
16472;SDS011;8347;52.486;13.432;2022-07-22T23:09:44;12.60;;;9.85;;
16472;SDS011;8347;52.486;13.432;2022-07-22T23:12:30;24.15;;;17.67;;
16472;SDS011;8347;52.486;13.432;2022-07-22T23:15:17;22.27;;;17.25;;
16472;SDS011;8347;52.486;13.432;2022-07-22T23:18:03;12.10;;;8.90;;
16472;SDS011;8347;52.486;13.432;2022-07-22T23:20:50;14.27;;;10.88;;
16472;SDS011;8347;52.486;13.432;2022-07-22T23:23:37;21.80;;;15.82;;
16472;SDS011;8347;52.486;13.432;2022-07-22T23:26:23;13.40;;;9.57;;